Time;durP1;ratioP1;P1;durP2;ratioP2;P2;SDS_P1;SDS_P2;PMS_P1;PMS_P2;Temp;Humidity;BMP_temperature;BMP_pressure;BME280_temperature;BME280_humidity;BME280_pressure;Samples;Min_cycle;Max_cycle;Signal;HPM_P1;HPM_P2
2023/09/19 00:00:42;;;;;;;2.22;0.77;;;;;;;12.45;68.70;99099.22;5026041;28;20180;-44
2023/09/19 00:03:09;;;;;;;5.03;0.65;;;;;;;12.43;68.67;99101.03;5012184;28;20054;-46
2023/09/19 00:05:38;;;;;;;2.78;0.88;;;;;;;12.42;68.27;99104.50;5016570;28;20136;-43
2023/09/19 00:08:05;;;;;;;4.75;0.60;;;;;;;12.43;67.47;99107.06;5018473;28;20103;-46
2023/09/19 00:10:36;;;;;;;2.30;0.90;;;;;;;12.43;67.63;99101.03;5023665;28;20080;-46
2023/09/19 00:13:07;;;;;;;2.95;0.75;;;;;;;12.42;68.94;99115.75;5023655;28;20053;-47
2023/09/19 00:15:41;;;;;;;6.28;0.73;;;;;;;12.43;69.07;99116.63;5019536;28;20088;-46
2023/09/19 00:18:08;;;;;;;4.47;0.60;;;;;;;12.43;68.72;99121.81;5011283;28;20053;-46
2023/09/19 00:20:36;;;;;;;2.75;0.85;;;;;;;12.41;68.69;99114.06;5011633;28;20049;-46
2023/09/19 00:23:04;;;;;;;4.30;0.95;;;;;;;12.42;68.38;99114.88;5014146;28;20057;-41
2023/09/19 00:25:32;;;;;;;5.38;1.15;;;;;;;12.43;68.71;99119.22;5011942;28;20045;-44
2023/09/19 00:27:59;;;;;;;5.95;0.60;;;;;;;12.42;68.77;99114.88;5014285;28;20049;-45
2023/09/19 00:30:26;;;;;;;3.78;0.52;;;;;;;12.41;68.83;99118.38;5011802;28;20092;-46
2023/09/19 00:32:54;;;;;;;3.50;1.00;;;;;;;12.42;67.46;99120.09;5009236;28;20049;-49
2023/09/19 00:35:23;;;;;;;9.43;0.75;;;;;;;12.40;67.72;99116.69;5011199;28;20045;-42
2023/09/19 00:37:51;;;;;;;8.43;2.55;;;;;;;12.41;68.29;99123.56;5007782;28;20650;-48
2023/09/19 00:40:18;;;;;;;3.00;0.57;;;;;;;12.39;68.92;99121.00;5018231;28;20050;-49
2023/09/19 00:42:46;;;;;;;4.28;0.68;;;;;;;12.39;67.71;99120.19;5008128;28;20172;-44
2023/09/19 00:45:14;;;;;;;3.65;0.60;;;;;;;12.37;67.68;99121.94;5013359;28;20056;-48
2023/09/19 00:47:44;;;;;;;3.88;0.73;;;;;;;12.36;68.44;99120.25;5051832;28;20093;-45
2023/09/19 00:50:14;;;;;;;4.75;0.57;;;;;;;12.34;68.46;99126.31;5045347;28;20045;-44
2023/09/19 00:52:42;;;;;;;8.38;0.85;;;;;;;12.34;67.93;99113.34;5056440;28;20118;-43
2023/09/19 00:55:13;;;;;;;3.88;1.25;;;;;;;12.31;68.51;99118.63;5060043;28;20118;-49
2023/09/19 00:57:40;;;;;;;3.58;1.15;;;;;;;12.28;68.47;99108.31;5062283;28;20139;-42
2023/09/19 01:00:12;;;;;;;7.88;0.80;;;;;;;12.28;67.44;99113.50;5059863;28;20700;-44
2023/09/19 01:02:38;;;;;;;4.20;0.60;;;;;;;12.25;69.04;99102.31;5047268;28;20049;-42
2023/09/19 01:05:05;;;;;;;3.40;0.57;;;;;;;12.22;68.22;99108.44;5045077;28;20435;-44
2023/09/19 01:07:33;;;;;;;2.80;0.50;;;;;;;12.21;68.67;99102.44;5047873;28;20516;-45
2023/09/19 01:10:05;;;;;;;3.13;0.73;;;;;;;12.19;67.68;99103.34;5043117;28;20136;-46
2023/09/19 01:21:31;;;;;;;6.05;1.85;;;;;;;12.40;68.37;99106.31;5079116;27;20923;-45
2023/09/19 01:32:09;;;;;;;8.07;2.20;;;;;;;12.12;68.99;99096.59;5083956;27;20422;-48
2023/09/19 01:37:25;;;;;;;3.08;0.85;;;;;;;12.11;67.99;99116.50;5051189;27;20416;-42
2023/09/19 01:39:56;;;;;;;4.53;0.63;;;;;;;12.10;69.23;99103.56;5037682;28;20131;-43
2023/09/19 01:42:45;;;;;;;4.72;0.82;;;;;;;12.04;68.74;99110.59;5076468;28;20050;-40
2023/09/19 01:50:34;;;;;;;3.80;0.60;;;;;;;12.06;69.16;99088.06;5039553;28;20406;-48
2023/09/19 01:53:10;;;;;;;4.45;0.70;;;;;;;12.05;67.97;99086.34;4996894;28;20053;-45
2023/09/19 01:55:43;;;;;;;3.97;0.90;;;;;;;12.07;68.93;99099.31;4997539;28;20053;-46
2023/09/19 01:58:20;;;;;;;3.65;0.50;;;;;;;12.04;68.71;99094.16;4997881;28;20395;-42
2023/09/19 02:00:51;;;;;;;3.53;1.50;;;;;;;12.05;69.29;99088.94;4998779;28;20054;-44
2023/09/19 02:03:22;;;;;;;1.70;0.60;;;;;;;12.05;68.68;99096.72;4992439;28;20053;-47
2023/09/19 02:05:51;;;;;;;7.07;1.02;;;;;;;12.05;69.04;99091.53;5001951;28;20061;-46
2023/09/19 02:08:19;;;;;;;1.85;0.40;;;;;;;12.06;68.55;99082.88;4995314;28;20073;-45
2023/09/19 02:10:48;;;;;;;7.05;1.55;;;;;;;12.05;69.29;99091.53;4996861;28;20057;-41
2023/09/19 02:13:17;;;;;;;5.72;0.88;;;;;;;12.06;69.60;99098.44;5002994;28;20046;-41
2023/09/19 02:15:44;;;;;;;4.95;0.95;;;;;;;12.05;69.00;99095.84;4989977;28;20053;-48
2023/09/19 02:18:11;;;;;;;5.57;0.80;;;;;;;12.06;68.40;99100.22;4989215;28;20563;-43
2023/09/19 02:20:39;;;;;;;4.82;0.65;;;;;;;12.05;69.43;99096.72;4977309;28;20065;-44
2023/09/19 02:23:07;;;;;;;3.42;1.15;;;;;;;12.05;68.53;99101.91;4990834;28;20050;-44
2023/09/19 02:25:35;;;;;;;3.08;0.70;;;;;;;12.04;68.86;99105.41;5022686;28;20054;-48
2023/09/19 02:28:02;;;;;;;2.50;0.65;;;;;;;12.03;69.07;99095.88;5001032;28;20108;-47
2023/09/19 02:30:29;;;;;;;5.70;1.20;;;;;;;12.02;69.01;99096.78;4996750;28;20049;-45
2023/09/19 02:32:56;;;;;;;7.65;0.85;;;;;;;12.00;68.65;99092.53;4993778;28;20077;-47
2023/09/19 02:35:25;;;;;;;3.08;0.95;;;;;;;11.98;69.91;99084.78;4995542;28;20073;-40
2023/09/19 02:37:51;;;;;;;3.15;0.85;;;;;;;11.98;69.06;99083.91;4999587;28;20056;-53
2023/09/19 02:40:18;;;;;;;6.35;1.67;;;;;;;11.96;69.21;99083.97;5003036;28;20505;-50
2023/09/19 02:42:48;;;;;;;2.65;0.77;;;;;;;11.95;69.62;99082.25;5000382;28;20046;-53
2023/09/19 02:45:17;;;;;;;6.03;0.68;;;;;;;11.96;70.16;99082.22;4992183;28;20054;-41
2023/09/19 02:47:45;;;;;;;3.58;0.77;;;;;;;11.98;69.51;99077.00;4993101;28;20061;-49
2023/09/19 02:50:13;;;;;;;3.95;0.60;;;;;;;11.99;69.61;99073.50;4974055;28;20130;-42
2023/09/19 02:52:44;;;;;;;6.75;1.00;;;;;;;12.04;70.04;99063.88;4993288;28;20133;-43
2023/09/19 02:55:14;;;;;;;7.65;1.20;;;;;;;12.06;69.70;99074.25;4988362;28;20481;-48
2023/09/19 02:57:44;;;;;;;4.47;1.30;;;;;;;12.11;69.77;99071.53;4998101;28;20154;-41
2023/09/19 03:00:12;;;;;;;4.65;0.85;;;;;;;12.14;69.22;99068.84;4993735;28;20549;-47
2023/09/19 03:02:41;;;;;;;6.85;0.93;;;;;;;12.17;69.40;99068.78;4985694;28;20053;-42
2023/09/19 03:05:10;;;;;;;5.07;0.80;;;;;;;12.20;70.43;99064.34;4991040;28;20057;-45
2023/09/19 03:07:38;;;;;;;;;;;;;;;12.11;70.68;99068.94;4978068;28;20046;-44
2023/09/19 03:10:07;;;;;;;4.50;1.02;;;;;;;12.19;69.30;99062.66;4976932;28;19929;-42
2023/09/19 03:12:34;;;;;;;3.17;0.80;;;;;;;12.24;70.41;99049.56;4982131;28;20057;-49
2023/09/19 03:15:01;;;;;;;3.58;0.77;;;;;;;12.28;70.43;99045.13;4985014;28;20054;-43
2023/09/19 03:17:28;;;;;;;4.88;0.60;;;;;;;12.26;70.80;99042.56;4978007;28;20054;-50
2023/09/19 03:19:57;;;;;;;4.38;1.10;;;;;;;12.28;70.59;99040.81;4985564;28;20038;-48
2023/09/19 03:22:24;;;;;;;8.05;0.73;;;;;;;12.28;70.20;99027.81;4980188;28;20046;-44
2023/09/19 03:24:52;;;;;;;4.47;1.08;;;;;;;12.28;70.03;99025.22;4982447;28;20046;-47
2023/09/19 03:27:20;;;;;;;7.80;0.80;;;;;;;12.30;70.32;99015.63;4980562;28;20054;-44
2023/09/19 03:29:47;;;;;;;2.63;0.90;;;;;;;12.32;71.19;99026.84;4981776;28;20542;-48
2023/09/19 03:32:13;;;;;;;8.68;1.30;;;;;;;12.36;69.99;99024.19;4980569;28;20058;-47
2023/09/19 03:34:42;;;;;;;5.88;0.98;;;;;;;12.37;70.34;99018.09;4986725;28;20054;-45
2023/09/19 03:37:10;;;;;;;6.28;1.70;;;;;;;12.42;70.84;99021.41;4987129;28;20049;-46
2023/09/19 03:39:36;;;;;;;9.32;1.23;;;;;;;12.42;71.52;99017.06;4981698;28;20050;-46
2023/09/19 03:42:03;;;;;;;4.25;1.17;;;;;;;12.47;70.30;99014.34;4987468;28;20061;-52
2023/09/19 03:44:30;;;;;;;7.60;0.63;;;;;;;12.51;71.22;99015.13;4983852;28;20419;-45
2023/09/19 03:46:57;;;;;;;7.00;1.27;;;;;;;12.52;70.65;99007.28;4981557;28;20054;-48
2023/09/19 03:49:24;;;;;;;6.13;1.20;;;;;;;12.56;70.56;99008.91;4982035;28;20058;-42
2023/09/19 03:51:51;;;;;;;5.65;0.93;;;;;;;12.57;71.87;99000.19;4981184;28;20051;-43
2023/09/19 03:54:19;;;;;;;4.78;0.77;;;;;;;12.59;70.99;99003.63;4978131;28;20058;-43
2023/09/19 03:56:46;;;;;;;7.22;0.75;;;;;;;12.62;71.95;98999.22;4985784;28;20055;-43
2023/09/19 03:59:13;;;;;;;8.10;1.08;;;;;;;12.62;72.36;99001.81;4986302;28;20042;-44
2023/09/19 04:01:41;;;;;;;8.82;1.48;;;;;;;12.65;71.67;99010.41;4979021;28;20058;-42
2023/09/19 04:04:08;;;;;;;8.07;3.03;;;;;;;12.67;72.29;99005.16;4979840;28;20619;-41
2023/09/19 04:06:35;;;;;;;7.60;1.40;;;;;;;12.68;72.37;98991.28;4982695;28;20624;-47
2023/09/19 04:09:03;;;;;;;7.68;1.10;;;;;;;12.71;71.58;98983.38;4986366;28;20554;-46
2023/09/19 04:11:31;;;;;;;4.95;0.93;;;;;;;12.71;72.99;98978.19;4987719;28;20407;-43
2023/09/19 04:13:57;;;;;;;5.38;1.10;;;;;;;12.73;73.05;98978.97;4985959;28;20125;-44
2023/09/19 04:16:24;;;;;;;8.93;1.30;;;;;;;12.75;72.52;98978.94;4993116;28;20046;-45
2023/09/19 04:18:51;;;;;;;8.20;1.42;;;;;;;12.75;72.28;98968.56;4990528;28;20073;-50
2023/09/19 04:21:18;;;;;;;7.32;1.30;;;;;;;12.78;72.83;98969.34;4982378;28;20108;-40
2023/09/19 04:23:45;;;;;;;8.10;1.27;;;;;;;12.78;72.87;98961.53;4980628;28;20073;-40
2023/09/19 04:26:12;;;;;;;8.27;1.73;;;;;;;12.80;72.39;98959.72;4978978;28;20488;-49
2023/09/19 04:28:39;;;;;;;5.70;1.08;;;;;;;12.80;72.47;98957.13;4971894;28;20045;-44
2023/09/19 04:31:08;;;;;;;4.57;0.75;;;;;;;12.85;72.32;98957.00;4982070;28;20828;-49
2023/09/19 04:33:35;;;;;;;4.13;0.73;;;;;;;12.85;72.73;98952.66;4979673;28;20059;-41
2023/09/19 04:36:03;;;;;;;9.98;1.48;;;;;;;12.89;72.30;98947.34;4976308;28;21251;-48
2023/09/19 04:38:50;;;;;;;5.72;0.93;;;;;;;12.90;73.21;98943.88;4978131;28;20161;-41
2023/09/19 04:41:17;;;;;;;5.07;0.90;;;;;;;12.90;72.13;98941.28;4974638;28;20057;-51
2023/09/19 04:43:43;;;;;;;5.43;1.35;;;;;;;12.92;72.54;98937.72;4973860;28;20049;-44
2023/09/19 04:46:10;;;;;;;2.67;1.02;;;;;;;12.93;72.84;98933.38;4979896;28;20056;-42
2023/09/19 04:48:38;;;;;;;10.50;1.00;;;;;;;12.93;73.87;98928.16;4978191;28;20117;-42
2023/09/19 04:51:05;;;;;;;7.25;0.82;;;;;;;12.96;72.65;98939.34;4980953;28;20680;-46
2023/09/19 04:53:31;;;;;;;8.23;0.93;;;;;;;12.98;72.98;98931.50;4977921;28;20051;-46
2023/09/19 04:55:58;;;;;;;7.30;1.23;;;;;;;13.00;73.39;98928.84;4980488;28;20054;-46
2023/09/19 04:58:24;;;;;;;4.47;1.08;;;;;;;13.00;74.20;98928.84;4978053;28;20066;-44
2023/09/19 05:00:51;;;;;;;7.93;1.02;;;;;;;13.02;73.33;98927.91;4980807;28;20054;-48
2023/09/19 05:03:19;;;;;;;13.20;1.83;;;;;;;13.07;73.69;98919.97;4978058;28;20058;-43
2023/09/19 05:05:46;;;;;;;5.53;0.80;;;;;;;13.08;74.28;98914.69;4984048;28;20054;-42
2023/09/19 05:08:14;;;;;;;7.28;0.95;;;;;;;13.10;73.28;98905.13;4980151;28;20050;-43
2023/09/19 05:10:41;;;;;;;9.52;1.70;;;;;;;13.10;74.01;98899.06;4978839;28;20046;-48
2023/09/19 05:13:08;;;;;;;5.18;0.90;;;;;;;13.14;74.08;98902.44;4979940;28;20139;-43
2023/09/19 05:15:35;;;;;;;6.97;1.20;;;;;;;13.17;73.63;98894.53;4976425;28;20050;-39
2023/09/19 05:18:03;;;;;;;8.60;1.02;;;;;;;13.18;73.80;98888.44;4979761;28;20057;-48
2023/09/19 05:20:32;;;;;;;6.15;1.02;;;;;;;13.20;73.84;98884.00;4977532;28;20046;-44
2023/09/19 05:23:02;;;;;;;2.15;0.90;;;;;;;13.19;74.60;98883.19;4987893;28;20073;-50
2023/09/19 05:25:31;;;;;;;8.13;1.50;;;;;;;13.24;74.05;98880.41;4977453;28;20053;-43
2023/09/19 05:27:59;;;;;;;9.63;2.00;;;;;;;13.26;74.65;98870.81;4986889;28;20111;-48
2023/09/19 05:30:27;;;;;;;5.88;0.82;;;;;;;13.28;74.65;98856.03;4979885;28;20507;-47
2023/09/19 05:32:54;;;;;;;3.60;0.93;;;;;;;13.30;74.48;98864.63;4979011;28;20137;-43
2023/09/19 05:35:22;;;;;;;4.53;0.70;;;;;;;13.28;75.01;98866.44;4986115;28;20050;-46
2023/09/19 05:37:51;;;;;;;5.07;0.70;;;;;;;13.27;74.35;98859.50;4982527;28;20184;-46
2023/09/19 05:40:18;;;;;;;9.32;1.10;;;;;;;13.30;74.80;98869.81;4977303;28;20413;-45
2023/09/19 05:42:46;;;;;;;6.03;1.13;;;;;;;13.32;74.15;98855.03;4976726;28;20364;-45
2023/09/19 05:45:13;;;;;;;4.35;0.75;;;;;;;13.29;75.08;98849.94;4970426;28;20551;-46
2023/09/19 05:47:44;;;;;;;9.65;1.42;;;;;;;13.32;75.16;98843.78;4984097;28;20096;-47
2023/09/19 05:50:11;;;;;;;5.57;0.60;;;;;;;13.34;74.93;98840.22;4973434;28;20050;-45
2023/09/19 05:52:39;;;;;;;6.75;0.85;;;;;;;13.35;75.11;98834.09;4977049;28;20149;-49
2023/09/19 05:55:07;;;;;;;7.55;1.10;;;;;;;13.35;74.66;98826.31;4976182;28;20105;-48
2023/09/19 05:57:34;;;;;;;5.93;1.20;;;;;;;13.39;75.07;98815.78;4977904;28;20054;-45
2023/09/19 06:00:02;;;;;;;3.35;0.70;;;;;;;13.36;74.72;98806.34;4981360;28;20050;-46
2023/09/19 06:02:29;;;;;;;9.38;1.52;;;;;;;13.37;75.10;98793.31;4977697;28;20054;-43
2023/09/19 06:04:57;;;;;;;4.32;0.85;;;;;;;13.40;75.01;98805.34;4980420;28;20059;-45
2023/09/19 06:07:26;;;;;;;13.48;1.13;;;;;;;13.42;74.84;98805.28;4977431;28;20100;-45
2023/09/19 06:09:53;;;;;;;6.47;0.47;;;;;;;13.45;74.96;98779.19;4984257;28;20200;-43
2023/09/19 06:12:20;;;;;;;5.70;1.77;;;;;;;13.47;75.11;98777.38;4984617;28;20049;-54
2023/09/19 06:14:49;;;;;;;3.80;1.17;;;;;;;13.52;74.28;98780.72;4988189;28;20449;-44
2023/09/19 06:17:17;;;;;;;2.88;0.80;;;;;;;13.53;74.30;98792.81;4984157;28;20138;-46
2023/09/19 06:19:47;;;;;;;3.63;2.08;;;;;;;13.56;74.89;98787.50;4983042;28;20537;-48
2023/09/19 06:22:18;;;;;;;3.85;1.08;;;;;;;13.56;75.18;98782.28;4979771;28;20101;-47
2023/09/19 06:24:47;;;;;;;5.53;1.05;;;;;;;13.58;74.87;98775.28;4982326;28;20049;-46
2023/09/19 06:27:13;;;;;;;6.05;0.80;;;;;;;13.59;75.08;98769.19;4977734;28;20058;-43
2023/09/19 06:29:40;;;;;;;4.60;1.27;;;;;;;13.62;75.36;98766.44;4983575;28;20038;-44
2023/09/19 06:32:09;;;;;;;2.72;1.30;;;;;;;13.67;74.29;98762.81;4982639;28;20124;-45
2023/09/19 06:34:38;;;;;;;7.18;0.85;;;;;;;13.72;74.82;98766.97;4982542;28;20418;-40
2023/09/19 06:37:06;;;;;;;2.35;0.80;;;;;;;13.67;74.89;98761.09;4978373;28;20137;-47
2023/09/19 06:39:32;;;;;;;5.47;1.00;;;;;;;13.74;75.32;98757.34;4981301;28;20061;-51
2023/09/19 06:42:01;;;;;;;2.92;0.95;;;;;;;13.79;74.71;98753.75;4981444;28;20046;-43
2023/09/19 06:44:29;;;;;;;5.53;0.60;;;;;;;13.83;75.45;98756.19;4984926;28;20507;-47
2023/09/19 06:46:56;;;;;;;3.92;1.08;;;;;;;13.91;75.39;98749.84;4977471;28;20523;-50
2023/09/19 06:49:23;;;;;;;4.78;0.75;;;;;;;13.95;74.81;98756.63;4981785;28;20149;-43
2023/09/19 06:51:49;;;;;;;3.85;1.30;;;;;;;13.94;75.36;98754.91;4982454;28;20129;-48
2023/09/19 06:54:17;;;;;;;6.43;1.17;;;;;;;14.00;75.35;98739.06;4976645;28;20050;-47
2023/09/19 06:56:44;;;;;;;2.95;1.17;;;;;;;14.03;74.97;98740.72;4976292;28;20495;-45
2023/09/19 06:59:14;;;;;;;3.17;1.05;;;;;;;14.05;74.72;98737.13;4981320;28;20046;-48
2023/09/19 07:01:41;;;;;;;6.03;1.25;;;;;;;14.09;74.67;98738.72;4984581;28;20702;-46
2023/09/19 07:04:08;;;;;;;2.55;1.17;;;;;;;14.14;75.33;98731.59;4983209;28;20128;-45
2023/09/19 07:06:35;;;;;;;8.63;1.67;;;;;;;14.17;75.38;98724.56;4982502;28;20074;-44
2023/09/19 07:09:02;;;;;;;5.40;1.63;;;;;;;14.20;74.42;98720.09;4977533;28;20137;-46
2023/09/19 07:11:30;;;;;;;2.97;1.13;;;;;;;14.21;75.10;98721.78;4981945;28;20174;-46
2023/09/19 07:13:58;;;;;;;7.10;1.73;;;;;;;14.23;74.86;98719.97;4984146;28;20046;-42
2023/09/19 07:16:29;;;;;;;6.03;1.42;;;;;;;14.26;75.01;98719.00;4980167;28;20045;-50
2023/09/19 07:18:57;;;;;;;7.65;1.60;;;;;;;14.24;75.27;98720.81;4986821;28;20058;-53
2023/09/19 07:21:24;;;;;;;3.92;1.33;;;;;;;14.34;74.83;98706.53;4982719;28;20503;-46
2023/09/19 07:23:51;;;;;;;6.10;1.30;;;;;;;14.39;74.87;98709.78;4985419;28;20217;-46
2023/09/19 07:26:19;;;;;;;3.70;1.23;;;;;;;14.42;74.86;98694.94;4978606;28;20054;-45
2023/09/19 07:28:45;;;;;;;9.20;1.52;;;;;;;14.43;75.00;98694.03;4984511;28;20050;-44
2023/09/19 07:31:14;;;;;;;5.70;1.70;;;;;;;14.49;74.75;98696.41;4984806;28;20171;-44
2023/09/19 07:33:41;;;;;;;4.90;1.55;;;;;;;14.53;74.36;98698.78;4974487;28;20504;-44
2023/09/19 07:36:10;;;;;;;6.00;1.40;;;;;;;14.58;74.50;98690.78;4985223;28;20522;-46
2023/09/19 07:38:37;;;;;;;6.57;1.50;;;;;;;14.59;74.66;98692.50;4985403;28;20053;-47
2023/09/19 07:41:05;;;;;;;5.10;1.40;;;;;;;14.64;74.01;98706.19;4981650;28;20137;-47
2023/09/19 07:43:33;;;;;;;6.03;1.77;;;;;;;14.65;74.11;98689.63;4982024;28;20069;-44
2023/09/19 07:46:06;;;;;;;7.70;1.90;;;;;;;14.69;74.33;98689.53;4985102;28;20050;-46
2023/09/19 07:48:35;;;;;;;8.68;2.13;;;;;;;14.72;74.25;98699.78;4986261;28;20046;-43
2023/09/19 07:51:04;;;;;;;7.35;1.92;;;;;;;14.76;74.07;98696.16;4978067;28;20097;-42
2023/09/19 07:53:30;;;;;;;4.45;1.45;;;;;;;14.79;74.00;98688.22;4983328;28;20621;-45
2023/09/19 07:56:06;;;;;;;8.75;1.83;;;;;;;14.84;73.97;98688.91;4985758;28;20407;-45
2023/09/19 07:58:34;;;;;;;5.07;1.20;;;;;;;14.88;74.38;98689.59;4986258;28;20053;-45
2023/09/19 08:01:06;;;;;;;6.72;1.10;;;;;;;14.94;74.27;98667.66;4986064;28;20070;-48
2023/09/19 08:03:34;;;;;;;8.93;1.92;;;;;;;14.96;73.87;98676.25;4978580;28;20166;-42
2023/09/19 08:06:01;;;;;;;3.97;0.95;;;;;;;15.00;74.09;98677.81;4979493;28;20047;-49
2023/09/19 08:08:27;;;;;;;5.65;1.15;;;;;;;15.06;74.00;98682.75;4977808;28;20050;-46
2023/09/19 08:10:56;;;;;;;7.75;1.40;;;;;;;15.08;74.02;98680.94;4978320;28;20416;-44
2023/09/19 08:13:24;;;;;;;8.68;1.35;;;;;;;15.13;73.60;98684.19;4982818;28;20097;-45
2023/09/19 08:15:51;;;;;;;6.00;1.08;;;;;;;15.14;73.11;98685.88;4978803;28;20046;-48
2023/09/19 08:18:17;;;;;;;2.97;0.82;;;;;;;15.17;73.79;98664.06;4975627;28;20058;-47
2023/09/19 08:20:50;;;;;;;7.72;1.55;;;;;;;15.21;72.98;98659.53;4976423;28;20138;-46
2023/09/19 08:23:19;;;;;;;6.68;1.88;;;;;;;15.27;73.43;98669.72;4977146;28;20050;-47
2023/09/19 08:25:47;;;;;;;3.53;1.10;;;;;;;15.31;73.84;98658.22;4976026;28;20050;-52
2023/09/19 08:28:18;;;;;;;3.33;1.70;;;;;;;15.34;73.46;98650.25;4974103;28;20081;-44
2023/09/19 08:30:46;;;;;;;5.32;1.63;;;;;;;15.38;73.97;98653.56;4975238;28;20053;-50
2023/09/19 08:33:14;;;;;;;10.73;1.98;;;;;;;15.44;73.44;98645.47;4975216;28;20141;-44
2023/09/19 08:35:42;;;;;;;9.73;2.85;;;;;;;15.49;73.69;98646.09;4981046;28;20065;-50
2023/09/19 08:38:11;;;;;;;9.05;1.42;;;;;;;15.51;74.12;98635.59;4974224;28;20411;-51
2023/09/19 08:40:44;;;;;;;3.58;0.90;;;;;;;15.57;73.88;98635.28;4972716;28;20039;-44
2023/09/19 08:43:11;;;;;;;7.40;1.33;;;;;;;15.58;73.93;98637.00;4978623;28;20074;-47
2023/09/19 08:45:38;;;;;;;5.63;2.03;;;;;;;15.60;73.90;98637.78;4971573;28;20133;-47
2023/09/19 08:50:49;;;;;;;8.13;1.75;;;;;;;15.73;73.42;98627.59;5117335;27;20411;-49
2023/09/19 08:53:27;;;;;;;6.75;1.90;;;;;;;15.86;73.08;98617.44;5069032;28;20074;-41
2023/09/19 08:55:57;;;;;;;8.95;1.55;;;;;;;15.92;72.69;98622.38;5065899;28;20044;-46
2023/09/19 08:58:29;;;;;;;4.32;1.50;;;;;;;15.89;72.80;98611.22;5073135;28;20222;-53
2023/09/19 09:01:00;;;;;;;6.65;1.13;;;;;;;15.93;72.75;98631.03;5068386;28;20134;-47
2023/09/19 09:03:32;;;;;;;4.57;1.48;;;;;;;15.90;72.96;98626.81;5068606;28;20063;-45
2023/09/19 09:05:59;;;;;;;6.30;1.20;;;;;;;15.91;72.84;98620.66;5071534;28;20052;-44
2023/09/19 09:08:27;;;;;;;7.38;1.80;;;;;;;16.03;72.05;98626.25;5068896;28;20101;-48
2023/09/19 09:10:54;;;;;;;4.50;1.13;;;;;;;16.09;72.12;98620.75;5069810;28;20131;-47
2023/09/19 09:13:22;;;;;;;3.45;1.80;;;;;;;16.10;72.19;98625.03;5073704;28;20129;-48
2023/09/19 09:15:50;;;;;;;9.13;2.35;;;;;;;16.21;72.65;98627.13;5070179;28;20055;-42
2023/09/19 09:18:17;;;;;;;6.63;1.42;;;;;;;16.24;71.61;98628.75;5068458;28;20064;-48
2023/09/19 09:20:44;;;;;;;5.25;1.25;;;;;;;16.24;71.94;98636.59;5069584;28;20484;-43
2023/09/19 09:23:13;;;;;;;5.70;1.70;;;;;;;16.24;71.98;98628.75;5069613;28;20552;-46
2023/09/19 09:25:56;;;;;;;12.77;1.88;;;;;;;16.23;71.79;98627.03;5069175;28;20044;-44
2023/09/19 09:28:25;;;;;;;6.03;1.65;;;;;;;16.24;72.17;98639.22;5070546;28;20469;-49
2023/09/19 09:30:52;;;;;;;6.78;1.33;;;;;;;16.28;71.87;98625.06;5070128;28;20154;-45
2023/09/19 09:33:21;;;;;;;5.22;3.38;;;;;;;16.31;72.08;98640.56;5067093;28;20409;-45
2023/09/19 09:36:00;;;;;;;9.77;1.92;;;;;;;16.35;71.93;98636.06;5066756;28;20056;-49
2023/09/19 09:38:28;;;;;;;9.35;1.70;;;;;;;16.37;71.34;98635.06;5070513;28;20060;-43
2023/09/19 09:43:41;;;;;;;5.18;2.85;;;;;;;16.43;71.61;98639.13;5008640;28;20423;-41
2023/09/19 09:51:39;;;;;;;6.47;1.70;;;;;;;16.55;71.66;98648.97;5083910;27;20399;-43
2023/09/19 09:54:15;;;;;;;11.90;2.88;;;;;;;16.54;71.13;98657.75;5058701;28;20056;-44
2023/09/19 10:02:29;;;;;;;8.63;2.92;;;;;;;16.62;71.12;98644.28;5059573;28;20430;-46
2023/09/19 10:04:59;;;;;;;4.85;3.22;;;;;;;16.60;71.54;98646.13;5013508;27;20156;-45
2023/09/19 10:07:32;;;;;;;8.52;2.92;;;;;;;16.68;71.37;98630.03;5012211;28;20065;-45
2023/09/19 10:10:06;;;;;;;16.73;2.92;;;;;;;16.73;71.37;98635.06;5013324;28;20556;-44
2023/09/19 10:12:38;;;;;;;10.25;4.75;;;;;;;16.75;71.12;98638.44;5012343;28;20046;-47
2023/09/19 10:15:07;;;;;;;9.55;2.90;;;;;;;16.76;70.89;98634.91;5014280;28;20053;-48
2023/09/19 10:17:36;;;;;;;6.93;2.80;;;;;;;16.77;71.50;98642.66;5012395;28;20058;-47
2023/09/19 10:20:19;;;;;;;8.18;3.13;;;;;;;16.81;71.30;98635.50;5012168;28;20053;-41
2023/09/19 10:22:56;;;;;;;4.88;2.50;;;;;;;16.79;71.49;98634.75;5010286;28;20053;-47
2023/09/19 10:25:28;;;;;;;7.40;3.70;;;;;;;16.86;71.08;98641.34;5007939;28;20403;-44
2023/09/19 10:27:59;;;;;;;4.70;2.75;;;;;;;16.90;71.15;98647.25;5013740;28;20491;-40
2023/09/19 10:30:28;;;;;;;4.72;2.92;;;;;;;16.93;71.67;98627.00;5009895;28;20471;-47
2023/09/19 10:33:05;;;;;;;6.40;3.78;;;;;;;16.94;71.79;98633.97;5013143;28;20061;-45
2023/09/19 10:35:33;;;;;;;5.75;3.42;;;;;;;17.05;71.73;98619.44;5011159;28;20076;-47
2023/09/19 10:38:02;;;;;;;8.38;2.85;;;;;;;17.16;71.36;98619.75;5010310;28;20092;-43
2023/09/19 10:40:31;;;;;;;9.50;3.38;;;;;;;17.25;71.19;98625.47;5010300;28;20251;-48
2023/09/19 10:43:05;;;;;;;8.00;3.15;;;;;;;17.36;71.87;98602.16;5010398;28;20076;-41
2023/09/19 10:45:34;;;;;;;3.92;3.00;;;;;;;17.44;71.40;98618.31;5005268;28;20058;-48
2023/09/19 10:48:02;;;;;;;6.57;2.47;;;;;;;17.54;71.49;98615.16;5010925;28;20137;-44
2023/09/19 10:50:34;;;;;;;4.72;2.40;;;;;;;17.56;70.89;98613.34;5003117;28;20054;-46
2023/09/19 10:53:04;;;;;;;5.18;2.97;;;;;;;17.63;70.93;98625.13;5005818;28;20050;-46
2023/09/19 10:55:35;;;;;;;5.25;2.63;;;;;;;17.68;70.25;98623.13;5010757;28;20050;-44
2023/09/19 10:58:14;;;;;;;5.90;3.40;;;;;;;17.77;70.67;98615.69;5003163;28;20411;-44
2023/09/19 11:01:02;;;;;;;4.07;2.70;;;;;;;17.85;71.09;98629.19;5000288;28;20038;-47
2023/09/19 11:03:30;;;;;;;6.35;3.58;;;;;;;17.92;70.31;98621.81;5005657;28;20059;-42
2023/09/19 11:06:10;;;;;;;3.75;3.45;;;;;;;17.94;70.22;98620.81;5009658;28;20061;-44
2023/09/19 11:11:43;;;;;;;3.60;0.70;;;;;;;18.02;70.23;98627.38;5072255;27;20403;-40
2023/09/19 11:30:45;;;;;;;2.45;1.27;;;;;;;18.16;70.81;98640.59;5069668;27;20455;-48
2023/09/19 11:36:06;;;;;;;2.22;0.63;;;;;;;18.19;70.50;98621.22;5039923;28;20909;-45
2023/09/19 11:46:58;;;;;;;3.33;1.50;;;;;;;18.66;70.01;98635.13;5029299;27;20430;-43
2023/09/19 11:52:05;;;;;;;1.77;0.50;;;;;;;18.68;70.36;98638.47;5025951;27;20413;-48
2023/09/19 11:54:32;;;;;;;2.10;1.13;;;;;;;18.75;70.13;98621.44;5015103;28;20053;-48
2023/09/19 11:57:00;;;;;;;2.38;0.50;;;;;;;18.83;70.48;98635.88;5014930;28;20053;-42
2023/09/19 11:59:29;;;;;;;1.33;0.70;;;;;;;18.94;70.54;98630.84;5017750;28;20057;-46
2023/09/19 12:02:00;;;;;;;3.35;0.98;;;;;;;19.01;69.94;98616.41;5016821;28;20041;-44
2023/09/19 12:07:15;;;;;;;2.97;0.60;;;;;;;19.08;70.14;98629.22;5072407;27;20911;-44
2023/09/19 12:09:46;;;;;;;1.75;0.80;;;;;;;19.07;69.59;98624.88;5053573;28;20479;-44
2023/09/19 12:12:21;;;;;;;1.70;0.50;;;;;;;19.04;70.16;98622.44;5054879;28;20067;-42
2023/09/19 12:14:50;;;;;;;1.42;0.80;;;;;;;19.05;69.88;98630.19;5054570;28;20080;-49
2023/09/19 12:17:22;;;;;;;1.83;0.80;;;;;;;19.09;69.68;98630.88;5056256;28;20164;-42
2023/09/19 12:19:51;;;;;;;3.70;0.73;;;;;;;19.11;70.21;98629.84;5057281;28;20138;-43
2023/09/19 12:22:20;;;;;;;1.55;0.60;;;;;;;19.10;70.33;98632.56;5051121;28;20403;-45
2023/09/19 12:24:47;;;;;;;2.45;0.77;;;;;;;19.12;70.30;98635.97;5053092;28;20044;-42
2023/09/19 12:27:15;;;;;;;1.25;0.40;;;;;;;19.15;70.22;98638.38;5047920;28;20492;-45
2023/09/19 12:32:34;;;;;;;3.15;1.73;;;;;;;19.13;70.28;98632.38;5094472;27;20751;-45
2023/09/19 12:35:07;;;;;;;1.23;0.80;;;;;;;19.12;70.72;98643.84;5041478;28;20053;-46
2023/09/19 12:37:36;;;;;;;1.77;0.85;;;;;;;19.12;70.48;98646.44;5035919;28;20060;-46
2023/09/19 12:40:27;;;;;;;3.38;1.35;;;;;;;19.15;70.94;98635.75;5048340;28;20056;-45
2023/09/19 12:42:58;;;;;;;2.00;1.08;;;;;;;19.17;70.66;98649.63;5068993;28;20498;-47
2023/09/19 12:45:26;;;;;;;1.88;1.77;;;;;;;19.15;70.83;98651.50;5056737;28;20792;-48
2023/09/19 12:48:31;;;;;;;4.25;0.80;;;;;;;19.09;70.87;98641.38;5051361;28;20091;-43
2023/09/19 12:51:07;;;;;;;2.25;1.63;;;;;;;19.14;70.54;98647.19;5058541;28;20390;-44
2023/09/19 12:53:40;;;;;;;2.33;0.90;;;;;;;19.14;70.53;98637.53;5057761;28;20680;-46
2023/09/19 12:56:09;;;;;;;4.68;1.00;;;;;;;19.12;70.79;98646.44;5042435;28;20049;-44
2023/09/19 12:58:54;;;;;;;2.08;0.90;;;;;;;19.11;70.66;98639.50;5053136;28;20115;-46
2023/09/19 13:01:30;;;;;;;2.15;0.90;;;;;;;19.10;70.35;98643.06;5054167;28;20057;-43
2023/09/19 13:04:19;;;;;;;5.60;0.85;;;;;;;19.00;70.93;98646.22;5055381;28;20056;-47